sensor_id;sensor_type;location;lat;lon;timestamp;P1;durP1;ratioP1;P2;durP2;ratioP2
28180;SDS011;15464;50.988;10.318;2023-03-11T00:00:38;4.85;;;3.00;;
28180;SDS011;15464;50.988;10.318;2023-03-11T00:03:10;4.38;;;3.80;;
28180;SDS011;15464;50.988;10.318;2023-03-11T00:05:39;3.42;;;3.10;;
28180;SDS011;15464;50.988;10.318;2023-03-11T00:08:08;5.07;;;3.42;;
28180;SDS011;15464;50.988;10.318;2023-03-11T00:10:38;5.07;;;2.97;;
28180;SDS011;15464;50.988;10.318;2023-03-11T00:15:35;3.78;;;3.05;;
28180;SDS011;15464;50.988;10.318;2023-03-11T00:18:03;3.83;;;3.30;;
28180;SDS011;15464;50.988;10.318;2023-03-11T00:20:31;2.90;;;2.65;;
28180;SDS011;15464;50.988;10.318;2023-03-11T00:23:03;4.10;;;3.35;;
28180;SDS011;15464;50.988;10.318;2023-03-11T00:25:31;3.50;;;3.20;;
28180;SDS011;15464;50.988;10.318;2023-03-11T00:27:59;3.60;;;3.30;;
28180;SDS011;15464;50.988;10.318;2023-03-11T00:30:26;5.28;;;3.50;;
28180;SDS011;15464;50.988;10.318;2023-03-11T00:32:54;3.38;;;3.00;;
28180;SDS011;15464;50.988;10.318;2023-03-11T00:37:52;3.97;;;3.15;;
28180;SDS011;15464;50.988;10.318;2023-03-11T00:40:20;3.20;;;2.90;;
28180;SDS011;15464;50.988;10.318;2023-03-11T00:42:49;4.00;;;2.70;;
28180;SDS011;15464;50.988;10.318;2023-03-11T00:45:16;4.40;;;2.90;;
28180;SDS011;15464;50.988;10.318;2023-03-11T00:47:44;3.28;;;2.97;;
28180;SDS011;15464;50.988;10.318;2023-03-11T00:50:15;3.20;;;2.70;;
28180;SDS011;15464;50.988;10.318;2023-03-11T00:52:44;3.15;;;2.55;;
28180;SDS011;15464;50.988;10.318;2023-03-11T00:55:13;3.77;;;2.93;;
28180;SDS011;15464;50.988;10.318;2023-03-11T00:57:42;3.42;;;2.70;;
28180;SDS011;15464;50.988;10.318;2023-03-11T01:00:19;3.40;;;2.70;;
28180;SDS011;15464;50.988;10.318;2023-03-11T01:02:46;3.38;;;2.40;;
28180;SDS011;15464;50.988;10.318;2023-03-11T01:05:13;3.00;;;2.58;;
28180;SDS011;15464;50.988;10.318;2023-03-11T01:07:40;3.60;;;2.60;;
28180;SDS011;15464;50.988;10.318;2023-03-11T01:10:07;2.85;;;2.38;;
28180;SDS011;15464;50.988;10.318;2023-03-11T01:12:35;3.42;;;2.45;;
28180;SDS011;15464;50.988;10.318;2023-03-11T01:15:02;2.38;;;2.15;;
28180;SDS011;15464;50.988;10.318;2023-03-11T01:17:29;3.00;;;2.40;;
28180;SDS011;15464;50.988;10.318;2023-03-11T01:19:56;2.13;;;1.90;;
28180;SDS011;15464;50.988;10.318;2023-03-11T01:22:23;2.33;;;1.52;;
28180;SDS011;15464;50.988;10.318;2023-03-11T01:24:49;2.65;;;1.90;;
28180;SDS011;15464;50.988;10.318;2023-03-11T01:27:16;2.40;;;2.00;;
28180;SDS011;15464;50.988;10.318;2023-03-11T01:29:43;2.50;;;2.13;;
28180;SDS011;15464;50.988;10.318;2023-03-11T01:32:09;2.33;;;1.90;;
28180;SDS011;15464;50.988;10.318;2023-03-11T01:34:36;2.28;;;1.90;;
28180;SDS011;15464;50.988;10.318;2023-03-11T01:37:03;3.20;;;1.83;;
28180;SDS011;15464;50.988;10.318;2023-03-11T01:39:29;2.22;;;1.90;;
28180;SDS011;15464;50.988;10.318;2023-03-11T01:41:56;2.08;;;1.70;;
28180;SDS011;15464;50.988;10.318;2023-03-11T01:44:23;1.95;;;1.70;;
28180;SDS011;15464;50.988;10.318;2023-03-11T01:49:20;2.50;;;1.75;;
28180;SDS011;15464;50.988;10.318;2023-03-11T01:51:48;2.15;;;1.75;;
28180;SDS011;15464;50.988;10.318;2023-03-11T01:54:27;2.17;;;1.90;;
28180;SDS011;15464;50.988;10.318;2023-03-11T01:56:58;1.75;;;1.60;;
28180;SDS011;15464;50.988;10.318;2023-03-11T01:59:32;3.70;;;1.52;;
28180;SDS011;15464;50.988;10.318;2023-03-11T02:02:08;1.70;;;1.60;;
28180;SDS011;15464;50.988;10.318;2023-03-11T02:04:36;1.95;;;1.70;;
28180;SDS011;15464;50.988;10.318;2023-03-11T02:07:03;2.08;;;1.60;;
28180;SDS011;15464;50.988;10.318;2023-03-11T02:09:32;2.95;;;1.90;;
28180;SDS011;15464;50.988;10.318;2023-03-11T02:11:58;1.50;;;1.35;;
28180;SDS011;15464;50.988;10.318;2023-03-11T02:14:26;2.42;;;1.50;;
28180;SDS011;15464;50.988;10.318;2023-03-11T02:16:55;1.60;;;1.50;;
28180;SDS011;15464;50.988;10.318;2023-03-11T02:22:21;1.75;;;1.65;;
28180;SDS011;15464;50.988;10.318;2023-03-11T02:27:54;1.83;;;1.70;;
28180;SDS011;15464;50.988;10.318;2023-03-11T02:30:21;2.47;;;2.17;;
28180;SDS011;15464;50.988;10.318;2023-03-11T02:32:50;2.53;;;1.75;;
28180;SDS011;15464;50.988;10.318;2023-03-11T02:35:17;2.28;;;1.88;;
28180;SDS011;15464;50.988;10.318;2023-03-11T02:37:46;3.53;;;2.20;;
28180;SDS011;15464;50.988;10.318;2023-03-11T02:40:34;2.42;;;2.13;;
28180;SDS011;15464;50.988;10.318;2023-03-11T02:43:15;1.92;;;1.70;;
28180;SDS011;15464;50.988;10.318;2023-03-11T02:45:45;2.63;;;1.98;;
28180;SDS011;15464;50.988;10.318;2023-03-11T02:48:13;4.43;;;1.73;;
28180;SDS011;15464;50.988;10.318;2023-03-11T02:50:42;2.30;;;1.90;;
28180;SDS011;15464;50.988;10.318;2023-03-11T02:53:11;2.30;;;1.90;;
28180;SDS011;15464;50.988;10.318;2023-03-11T02:55:37;3.67;;;1.60;;
28180;SDS011;15464;50.988;10.318;2023-03-11T02:58:04;1.80;;;1.48;;
28180;SDS011;15464;50.988;10.318;2023-03-11T03:00:31;1.75;;;1.45;;
28180;SDS011;15464;50.988;10.318;2023-03-11T03:02:59;3.95;;;1.70;;
28180;SDS011;15464;50.988;10.318;2023-03-11T03:05:26;1.63;;;1.48;;
28180;SDS011;15464;50.988;10.318;2023-03-11T03:07:53;2.25;;;1.50;;
28180;SDS011;15464;50.988;10.318;2023-03-11T03:10:19;1.60;;;1.50;;
28180;SDS011;15464;50.988;10.318;2023-03-11T03:12:47;1.30;;;1.10;;
28180;SDS011;15464;50.988;10.318;2023-03-11T03:15:14;3.28;;;1.90;;
28180;SDS011;15464;50.988;10.318;2023-03-11T03:17:41;4.30;;;1.58;;
28180;SDS011;15464;50.988;10.318;2023-03-11T03:20:09;3.80;;;1.50;;
28180;SDS011;15464;50.988;10.318;2023-03-11T03:22:37;3.25;;;1.65;;
28180;SDS011;15464;50.988;10.318;2023-03-11T03:25:04;1.58;;;1.30;;
28180;SDS011;15464;50.988;10.318;2023-03-11T03:27:32;2.90;;;1.60;;
28180;SDS011;15464;50.988;10.318;2023-03-11T03:29:59;2.40;;;1.77;;
28180;SDS011;15464;50.988;10.318;2023-03-11T03:32:26;2.38;;;1.50;;
28180;SDS011;15464;50.988;10.318;2023-03-11T03:34:53;1.98;;;1.25;;
28180;SDS011;15464;50.988;10.318;2023-03-11T03:37:27;2.13;;;1.55;;
28180;SDS011;15464;50.988;10.318;2023-03-11T03:39:57;4.10;;;1.63;;
28180;SDS011;15464;50.988;10.318;2023-03-11T03:42:23;2.42;;;1.50;;
28180;SDS011;15464;50.988;10.318;2023-03-11T03:44:50;2.00;;;1.60;;
28180;SDS011;15464;50.988;10.318;2023-03-11T03:47:18;2.10;;;1.60;;
28180;SDS011;15464;50.988;10.318;2023-03-11T03:49:45;3.40;;;2.03;;
28180;SDS011;15464;50.988;10.318;2023-03-11T03:52:12;5.75;;;1.98;;
28180;SDS011;15464;50.988;10.318;2023-03-11T03:54:38;2.13;;;1.83;;
28180;SDS011;15464;50.988;10.318;2023-03-11T03:57:05;2.55;;;1.95;;
28180;SDS011;15464;50.988;10.318;2023-03-11T03:59:32;5.57;;;1.80;;
28180;SDS011;15464;50.988;10.318;2023-03-11T04:01:58;3.35;;;1.80;;
28180;SDS011;15464;50.988;10.318;2023-03-11T04:04:25;4.53;;;2.10;;
28180;SDS011;15464;50.988;10.318;2023-03-11T04:06:52;2.45;;;1.88;;
28180;SDS011;15464;50.988;10.318;2023-03-11T04:09:19;8.65;;;2.47;;
28180;SDS011;15464;50.988;10.318;2023-03-11T04:11:46;2.50;;;1.85;;
28180;SDS011;15464;50.988;10.318;2023-03-11T04:14:13;2.88;;;1.73;;
28180;SDS011;15464;50.988;10.318;2023-03-11T04:16:40;3.30;;;1.70;;
28180;SDS011;15464;50.988;10.318;2023-03-11T04:19:07;4.20;;;1.85;;
28180;SDS011;15464;50.988;10.318;2023-03-11T04:21:34;2.45;;;1.75;;
28180;SDS011;15464;50.988;10.318;2023-03-11T04:24:00;2.85;;;1.77;;
28180;SDS011;15464;50.988;10.318;2023-03-11T04:26:27;4.22;;;1.60;;
28180;SDS011;15464;50.988;10.318;2023-03-11T04:28:54;3.45;;;1.80;;
28180;SDS011;15464;50.988;10.318;2023-03-11T04:31:21;3.00;;;1.83;;
28180;SDS011;15464;50.988;10.318;2023-03-11T04:33:48;2.65;;;1.58;;
28180;SDS011;15464;50.988;10.318;2023-03-11T04:36:15;2.05;;;1.65;;
28180;SDS011;15464;50.988;10.318;2023-03-11T04:38:41;3.38;;;1.77;;
28180;SDS011;15464;50.988;10.318;2023-03-11T04:41:08;2.20;;;1.65;;
28180;SDS011;15464;50.988;10.318;2023-03-11T04:43:35;4.47;;;2.13;;
28180;SDS011;15464;50.988;10.318;2023-03-11T04:46:02;2.55;;;1.77;;
28180;SDS011;15464;50.988;10.318;2023-03-11T04:48:29;6.05;;;2.08;;
28180;SDS011;15464;50.988;10.318;2023-03-11T04:50:55;4.53;;;2.05;;
28180;SDS011;15464;50.988;10.318;2023-03-11T04:53:22;3.15;;;1.63;;
28180;SDS011;15464;50.988;10.318;2023-03-11T04:55:49;3.25;;;1.80;;
28180;SDS011;15464;50.988;10.318;2023-03-11T04:58:17;3.92;;;1.80;;
28180;SDS011;15464;50.988;10.318;2023-03-11T05:00:44;4.75;;;2.10;;
28180;SDS011;15464;50.988;10.318;2023-03-11T05:03:11;5.03;;;2.20;;
28180;SDS011;15464;50.988;10.318;2023-03-11T05:05:37;5.35;;;2.20;;
28180;SDS011;15464;50.988;10.318;2023-03-11T05:08:04;3.08;;;1.92;;
28180;SDS011;15464;50.988;10.318;2023-03-11T05:10:31;4.78;;;2.25;;
28180;SDS011;15464;50.988;10.318;2023-03-11T05:12:58;3.50;;;2.13;;
28180;SDS011;15464;50.988;10.318;2023-03-11T05:15:25;2.53;;;2.17;;
28180;SDS011;15464;50.988;10.318;2023-03-11T05:17:52;4.40;;;2.35;;
28180;SDS011;15464;50.988;10.318;2023-03-11T05:20:18;3.13;;;2.03;;
28180;SDS011;15464;50.988;10.318;2023-03-11T05:22:45;3.65;;;2.35;;
28180;SDS011;15464;50.988;10.318;2023-03-11T05:25:11;2.47;;;2.17;;
28180;SDS011;15464;50.988;10.318;2023-03-11T05:27:38;4.13;;;2.08;;
28180;SDS011;15464;50.988;10.318;2023-03-11T05:30:05;4.63;;;2.15;;
28180;SDS011;15464;50.988;10.318;2023-03-11T05:32:33;6.43;;;2.30;;
28180;SDS011;15464;50.988;10.318;2023-03-11T05:35:00;6.32;;;2.50;;
28180;SDS011;15464;50.988;10.318;2023-03-11T05:37:27;5.85;;;3.22;;
28180;SDS011;15464;50.988;10.318;2023-03-11T05:42:23;7.95;;;3.20;;
28180;SDS011;15464;50.988;10.318;2023-03-11T05:44:49;5.20;;;2.80;;
28180;SDS011;15464;50.988;10.318;2023-03-11T05:47:16;6.05;;;3.25;;
28180;SDS011;15464;50.988;10.318;2023-03-11T05:49:43;5.35;;;2.70;;
28180;SDS011;15464;50.988;10.318;2023-03-11T05:54:39;4.38;;;2.10;;
28180;SDS011;15464;50.988;10.318;2023-03-11T05:57:06;2.63;;;1.58;;
28180;SDS011;15464;50.988;10.318;2023-03-11T05:59:32;5.40;;;2.53;;
28180;SDS011;15464;50.988;10.318;2023-03-11T06:02:00;3.88;;;2.78;;
28180;SDS011;15464;50.988;10.318;2023-03-11T06:04:27;5.28;;;2.80;;
28180;SDS011;15464;50.988;10.318;2023-03-11T06:06:54;5.13;;;2.60;;
28180;SDS011;15464;50.988;10.318;2023-03-11T06:09:21;4.45;;;2.95;;
28180;SDS011;15464;50.988;10.318;2023-03-11T06:11:47;5.70;;;3.08;;
28180;SDS011;15464;50.988;10.318;2023-03-11T06:14:14;6.13;;;2.88;;
28180;SDS011;15464;50.988;10.318;2023-03-11T06:16:41;4.28;;;2.85;;
28180;SDS011;15464;50.988;10.318;2023-03-11T06:19:08;4.53;;;3.17;;
28180;SDS011;15464;50.988;10.318;2023-03-11T06:21:35;3.50;;;2.70;;
28180;SDS011;15464;50.988;10.318;2023-03-11T06:24:01;5.18;;;3.22;;
28180;SDS011;15464;50.988;10.318;2023-03-11T06:26:28;8.07;;;3.33;;
28180;SDS011;15464;50.988;10.318;2023-03-11T06:28:55;7.22;;;3.47;;
28180;SDS011;15464;50.988;10.318;2023-03-11T06:31:23;7.28;;;3.08;;
28180;SDS011;15464;50.988;10.318;2023-03-11T06:33:52;4.88;;;2.80;;
28180;SDS011;15464;50.988;10.318;2023-03-11T06:36:22;10.02;;;4.78;;
28180;SDS011;15464;50.988;10.318;2023-03-11T06:38:51;7.18;;;4.05;;
28180;SDS011;15464;50.988;10.318;2023-03-11T06:41:19;4.97;;;2.80;;
28180;SDS011;15464;50.988;10.318;2023-03-11T06:43:45;3.65;;;2.75;;
28180;SDS011;15464;50.988;10.318;2023-03-11T06:46:14;6.57;;;3.20;;
28180;SDS011;15464;50.988;10.318;2023-03-11T06:48:43;7.30;;;3.13;;
28180;SDS011;15464;50.988;10.318;2023-03-11T06:51:12;7.35;;;3.13;;
28180;SDS011;15464;50.988;10.318;2023-03-11T06:53:39;7.57;;;3.00;;
28180;SDS011;15464;50.988;10.318;2023-03-11T06:56:06;6.93;;;2.72;;
28180;SDS011;15464;50.988;10.318;2023-03-11T06:58:35;7.82;;;3.10;;
28180;SDS011;15464;50.988;10.318;2023-03-11T07:01:07;6.20;;;3.05;;
28180;SDS011;15464;50.988;10.318;2023-03-11T07:03:38;5.82;;;3.13;;
28180;SDS011;15464;50.988;10.318;2023-03-11T07:06:06;7.18;;;3.25;;
28180;SDS011;15464;50.988;10.318;2023-03-11T07:08:37;4.40;;;3.03;;
28180;SDS011;15464;50.988;10.318;2023-03-11T07:13:35;5.55;;;2.70;;
28180;SDS011;15464;50.988;10.318;2023-03-11T07:16:06;5.05;;;3.28;;
28180;SDS011;15464;50.988;10.318;2023-03-11T07:18:35;7.85;;;3.35;;
28180;SDS011;15464;50.988;10.318;2023-03-11T07:21:03;4.47;;;2.78;;
28180;SDS011;15464;50.988;10.318;2023-03-11T07:23:32;7.90;;;2.72;;
28180;SDS011;15464;50.988;10.318;2023-03-11T07:26:00;5.88;;;2.40;;
28180;SDS011;15464;50.988;10.318;2023-03-11T07:28:27;5.35;;;2.58;;
28180;SDS011;15464;50.988;10.318;2023-03-11T07:30:54;6.20;;;2.33;;
28180;SDS011;15464;50.988;10.318;2023-03-11T07:33:21;4.18;;;2.72;;
28180;SDS011;15464;50.988;10.318;2023-03-11T07:35:50;6.82;;;2.97;;
28180;SDS011;15464;50.988;10.318;2023-03-11T07:38:17;7.97;;;2.72;;
28180;SDS011;15464;50.988;10.318;2023-03-11T07:40:45;8.25;;;3.15;;
28180;SDS011;15464;50.988;10.318;2023-03-11T07:43:12;5.40;;;2.80;;
28180;SDS011;15464;50.988;10.318;2023-03-11T07:45:38;4.72;;;2.33;;
28180;SDS011;15464;50.988;10.318;2023-03-11T07:48:05;7.07;;;2.58;;
28180;SDS011;15464;50.988;10.318;2023-03-11T07:50:32;5.85;;;2.03;;
28180;SDS011;15464;50.988;10.318;2023-03-11T07:52:59;4.63;;;2.47;;
28180;SDS011;15464;50.988;10.318;2023-03-11T07:55:25;6.78;;;2.70;;
28180;SDS011;15464;50.988;10.318;2023-03-11T07:57:52;6.20;;;1.90;;
28180;SDS011;15464;50.988;10.318;2023-03-11T08:00:19;5.15;;;2.47;;
28180;SDS011;15464;50.988;10.318;2023-03-11T08:02:46;2.92;;;1.80;;
28180;SDS011;15464;50.988;10.318;2023-03-11T08:05:13;3.78;;;1.30;;
28180;SDS011;15464;50.988;10.318;2023-03-11T08:07:40;2.70;;;1.40;;
28180;SDS011;15464;50.988;10.318;2023-03-11T08:10:06;3.95;;;1.48;;
28180;SDS011;15464;50.988;10.318;2023-03-11T08:12:34;3.22;;;1.83;;
28180;SDS011;15464;50.988;10.318;2023-03-11T08:15:00;3.75;;;1.20;;
28180;SDS011;15464;50.988;10.318;2023-03-11T08:17:27;4.88;;;1.50;;
28180;SDS011;15464;50.988;10.318;2023-03-11T08:19:54;5.72;;;1.38;;
28180;SDS011;15464;50.988;10.318;2023-03-11T08:22:20;6.70;;;3.22;;
28180;SDS011;15464;50.988;10.318;2023-03-11T08:24:50;8.57;;;1.58;;
28180;SDS011;15464;50.988;10.318;2023-03-11T08:27:18;2.25;;;1.20;;
28180;SDS011;15464;50.988;10.318;2023-03-11T08:29:45;5.63;;;1.80;;
28180;SDS011;15464;50.988;10.318;2023-03-11T08:32:12;3.55;;;1.50;;
28180;SDS011;15464;50.988;10.318;2023-03-11T08:34:39;4.57;;;1.70;;
28180;SDS011;15464;50.988;10.318;2023-03-11T08:37:05;5.25;;;1.60;;
28180;SDS011;15464;50.988;10.318;2023-03-11T08:39:32;4.10;;;1.60;;
28180;SDS011;15464;50.988;10.318;2023-03-11T08:41:59;2.88;;;1.75;;
28180;SDS011;15464;50.988;10.318;2023-03-11T08:44:26;7.90;;;1.83;;
28180;SDS011;15464;50.988;10.318;2023-03-11T08:46:53;4.43;;;1.80;;
28180;SDS011;15464;50.988;10.318;2023-03-11T08:49:19;5.47;;;1.60;;
28180;SDS011;15464;50.988;10.318;2023-03-11T08:51:46;4.03;;;1.17;;
28180;SDS011;15464;50.988;10.318;2023-03-11T08:54:13;3.92;;;1.50;;
28180;SDS011;15464;50.988;10.318;2023-03-11T08:56:39;6.38;;;1.50;;
28180;SDS011;15464;50.988;10.318;2023-03-11T08:59:06;8.00;;;2.47;;
28180;SDS011;15464;50.988;10.318;2023-03-11T09:01:33;2.90;;;1.30;;
28180;SDS011;15464;50.988;10.318;2023-03-11T09:04:00;8.38;;;2.25;;
28180;SDS011;15464;50.988;10.318;2023-03-11T09:06:27;3.53;;;1.58;;
28180;SDS011;15464;50.988;10.318;2023-03-11T09:08:55;4.47;;;1.70;;
28180;SDS011;15464;50.988;10.318;2023-03-11T09:11:22;4.35;;;1.40;;
28180;SDS011;15464;50.988;10.318;2023-03-11T09:13:49;3.53;;;1.40;;
28180;SDS011;15464;50.988;10.318;2023-03-11T09:16:18;5.28;;;1.48;;
28180;SDS011;15464;50.988;10.318;2023-03-11T09:18:48;4.47;;;1.92;;
28180;SDS011;15464;50.988;10.318;2023-03-11T09:21:15;5.25;;;1.30;;
28180;SDS011;15464;50.988;10.318;2023-03-11T09:23:42;3.65;;;1.50;;
28180;SDS011;15464;50.988;10.318;2023-03-11T09:26:09;6.30;;;1.52;;
28180;SDS011;15464;50.988;10.318;2023-03-11T09:28:37;5.07;;;1.50;;
28180;SDS011;15464;50.988;10.318;2023-03-11T09:31:03;7.55;;;2.30;;
28180;SDS011;15464;50.988;10.318;2023-03-11T09:33:31;5.82;;;1.80;;
28180;SDS011;15464;50.988;10.318;2023-03-11T09:36:02;4.18;;;1.38;;
28180;SDS011;15464;50.988;10.318;2023-03-11T09:38:29;5.35;;;1.73;;
28180;SDS011;15464;50.988;10.318;2023-03-11T09:41:04;6.32;;;1.83;;
28180;SDS011;15464;50.988;10.318;2023-03-11T09:49:03;3.83;;;1.65;;
28180;SDS011;15464;50.988;10.318;2023-03-11T09:51:45;4.00;;;1.85;;
28180;SDS011;15464;50.988;10.318;2023-03-11T09:54:27;4.07;;;2.05;;
28180;SDS011;15464;50.988;10.318;2023-03-11T09:56:58;6.50;;;1.55;;
28180;SDS011;15464;50.988;10.318;2023-03-11T09:59:31;4.22;;;1.30;;
28180;SDS011;15464;50.988;10.318;2023-03-11T10:01:58;2.95;;;1.35;;
28180;SDS011;15464;50.988;10.318;2023-03-11T10:04:26;4.50;;;1.83;;
28180;SDS011;15464;50.988;10.318;2023-03-11T10:07:00;7.35;;;1.85;;
28180;SDS011;15464;50.988;10.318;2023-03-11T10:09:31;4.57;;;1.35;;
28180;SDS011;15464;50.988;10.318;2023-03-11T10:15:15;10.48;;;1.65;;
28180;SDS011;15464;50.988;10.318;2023-03-11T10:17:53;6.13;;;1.67;;
28180;SDS011;15464;50.988;10.318;2023-03-11T10:20:44;3.28;;;1.40;;
28180;SDS011;15464;50.988;10.318;2023-03-11T10:32:06;5.88;;;1.70;;
28180;SDS011;15464;50.988;10.318;2023-03-11T10:34:44;5.38;;;1.90;;
28180;SDS011;15464;50.988;10.318;2023-03-11T10:37:36;5.45;;;1.38;;
28180;SDS011;15464;50.988;10.318;2023-03-11T10:40:20;3.30;;;1.45;;
28180;SDS011;15464;50.988;10.318;2023-03-11T10:43:10;4.72;;;1.80;;
28180;SDS011;15464;50.988;10.318;2023-03-11T10:45:40;5.63;;;1.80;;
28180;SDS011;15464;50.988;10.318;2023-03-11T10:48:14;4.22;;;1.58;;
28180;SDS011;15464;50.988;10.318;2023-03-11T10:51:03;4.25;;;1.70;;
28180;SDS011;15464;50.988;10.318;2023-03-11T10:53:51;3.38;;;1.45;;
28180;SDS011;15464;50.988;10.318;2023-03-11T10:56:35;3.17;;;1.42;;
28180;SDS011;15464;50.988;10.318;2023-03-11T10:59:05;4.85;;;1.48;;
28180;SDS011;15464;50.988;10.318;2023-03-11T11:01:54;3.83;;;1.75;;
28180;SDS011;15464;50.988;10.318;2023-03-11T11:04:39;5.78;;;1.10;;
28180;SDS011;15464;50.988;10.318;2023-03-11T11:10:17;6.47;;;1.27;;
28180;SDS011;15464;50.988;10.318;2023-03-11T11:12:52;5.60;;;1.53;;
28180;SDS011;15464;50.988;10.318;2023-03-11T11:15:31;5.20;;;1.80;;
28180;SDS011;15464;50.988;10.318;2023-03-11T11:20:32;4.03;;;1.60;;
28180;SDS011;15464;50.988;10.318;2023-03-11T11:23:00;7.90;;;3.10;;
28180;SDS011;15464;50.988;10.318;2023-03-11T11:25:36;4.85;;;1.60;;
28180;SDS011;15464;50.988;10.318;2023-03-11T11:28:17;12.55;;;1.63;;
28180;SDS011;15464;50.988;10.318;2023-03-11T11:30:55;22.30;;;2.60;;
28180;SDS011;15464;50.988;10.318;2023-03-11T11:35:58;6.25;;;1.48;;
28180;SDS011;15464;50.988;10.318;2023-03-11T11:38:28;7.75;;;1.40;;
28180;SDS011;15464;50.988;10.318;2023-03-11T11:40:57;6.68;;;1.88;;
28180;SDS011;15464;50.988;10.318;2023-03-11T11:49:27;8.13;;;2.28;;
28180;SDS011;15464;50.988;10.318;2023-03-11T11:51:58;7.72;;;1.63;;
28180;SDS011;15464;50.988;10.318;2023-03-11T11:54:51;6.57;;;1.60;;
28180;SDS011;15464;50.988;10.318;2023-03-11T11:57:19;7.75;;;1.88;;
28180;SDS011;15464;50.988;10.318;2023-03-11T11:59:47;6.95;;;1.98;;
28180;SDS011;15464;50.988;10.318;2023-03-11T12:10:44;3.25;;;1.40;;
28180;SDS011;15464;50.988;10.318;2023-03-11T12:19:09;4.82;;;1.35;;
28180;SDS011;15464;50.988;10.318;2023-03-11T12:26:45;4.07;;;1.48;;
28180;SDS011;15464;50.988;10.318;2023-03-11T12:31:51;4.53;;;1.33;;
28180;SDS011;15464;50.988;10.318;2023-03-11T12:34:20;3.38;;;2.10;;
28180;SDS011;15464;50.988;10.318;2023-03-11T12:36:50;3.33;;;1.58;;
28180;SDS011;15464;50.988;10.318;2023-03-11T12:39:19;4.72;;;1.20;;
28180;SDS011;15464;50.988;10.318;2023-03-11T12:44:39;7.97;;;1.25;;
28180;SDS011;15464;50.988;10.318;2023-03-11T12:49:33;6.30;;;1.70;;
28180;SDS011;15464;50.988;10.318;2023-03-11T13:02:18;2.42;;;1.23;;
28180;SDS011;15464;50.988;10.318;2023-03-11T13:05:06;2.42;;;1.13;;
28180;SDS011;15464;50.988;10.318;2023-03-11T13:08:01;5.85;;;1.27;;
28180;SDS011;15464;50.988;10.318;2023-03-11T13:13:09;1.95;;;0.93;;
28180;SDS011;15464;50.988;10.318;2023-03-11T13:15:48;2.58;;;1.02;;
28180;SDS011;15464;50.988;10.318;2023-03-11T13:18:17;5.30;;;1.20;;
28180;SDS011;15464;50.988;10.318;2023-03-11T13:20:50;2.85;;;1.20;;
28180;SDS011;15464;50.988;10.318;2023-03-11T13:26:09;6.35;;;1.58;;
28180;SDS011;15464;50.988;10.318;2023-03-11T13:41:41;8.02;;;1.63;;
28180;SDS011;15464;50.988;10.318;2023-03-11T13:44:19;2.10;;;1.30;;
28180;SDS011;15464;50.988;10.318;2023-03-11T13:47:09;2.63;;;1.15;;
28180;SDS011;15464;50.988;10.318;2023-03-11T13:49:53;3.15;;;1.23;;
28180;SDS011;15464;50.988;10.318;2023-03-11T13:53:05;3.53;;;1.20;;
28180;SDS011;15464;50.988;10.318;2023-03-11T13:55:27;3.67;;;1.50;;
28180;SDS011;15464;50.988;10.318;2023-03-11T13:58:20;3.75;;;1.50;;
28180;SDS011;15464;50.988;10.318;2023-03-11T14:03:18;5.43;;;1.20;;
28180;SDS011;15464;50.988;10.318;2023-03-11T14:05:48;5.82;;;1.30;;
28180;SDS011;15464;50.988;10.318;2023-03-11T14:08:25;6.63;;;1.20;;
28180;SDS011;15464;50.988;10.318;2023-03-11T14:13:30;2.97;;;1.40;;
28180;SDS011;15464;50.988;10.318;2023-03-11T14:18:37;5.63;;;1.40;;
28180;SDS011;15464;50.988;10.318;2023-03-11T14:21:15;3.88;;;1.35;;
28180;SDS011;15464;50.988;10.318;2023-03-11T14:23:50;8.80;;;1.40;;
28180;SDS011;15464;50.988;10.318;2023-03-11T14:26:20;3.15;;;1.02;;
28180;SDS011;15464;50.988;10.318;2023-03-11T14:28:53;2.60;;;1.23;;
28180;SDS011;15464;50.988;10.318;2023-03-11T14:33:55;4.32;;;1.42;;
28180;SDS011;15464;50.988;10.318;2023-03-11T14:36:39;4.95;;;1.90;;
28180;SDS011;15464;50.988;10.318;2023-03-11T14:39:21;4.70;;;1.40;;
28180;SDS011;15464;50.988;10.318;2023-03-11T14:42:13;3.83;;;2.15;;
28180;SDS011;15464;50.988;10.318;2023-03-11T14:45:05;3.20;;;1.40;;
28180;SDS011;15464;50.988;10.318;2023-03-11T14:50:15;3.45;;;1.17;;
28180;SDS011;15464;50.988;10.318;2023-03-11T14:53:00;2.38;;;1.20;;
28180;SDS011;15464;50.988;10.318;2023-03-11T14:55:34;3.42;;;1.05;;
28180;SDS011;15464;50.988;10.318;2023-03-11T15:00:50;3.17;;;1.17;;
28180;SDS011;15464;50.988;10.318;2023-03-11T15:03:22;6.75;;;1.98;;
28180;SDS011;15464;50.988;10.318;2023-03-11T15:05:58;3.28;;;1.52;;
28180;SDS011;15464;50.988;10.318;2023-03-11T15:08:36;4.97;;;1.23;;
28180;SDS011;15464;50.988;10.318;2023-03-11T15:13:37;6.60;;;1.30;;
28180;SDS011;15464;50.988;10.318;2023-03-11T15:16:06;6.82;;;1.38;;
28180;SDS011;15464;50.988;10.318;2023-03-11T15:18:47;2.95;;;1.33;;
28180;SDS011;15464;50.988;10.318;2023-03-11T15:21:15;6.68;;;1.92;;
28180;SDS011;15464;50.988;10.318;2023-03-11T15:24:05;3.70;;;1.38;;
28180;SDS011;15464;50.988;10.318;2023-03-11T15:26:32;3.45;;;1.30;;
28180;SDS011;15464;50.988;10.318;2023-03-11T15:29:14;2.63;;;1.27;;
28180;SDS011;15464;50.988;10.318;2023-03-11T15:31:43;2.67;;;1.17;;
28180;SDS011;15464;50.988;10.318;2023-03-11T15:44:34;4.25;;;1.27;;
28180;SDS011;15464;50.988;10.318;2023-03-11T15:47:02;4.20;;;1.30;;
28180;SDS011;15464;50.988;10.318;2023-03-11T15:49:29;2.17;;;1.00;;
28180;SDS011;15464;50.988;10.318;2023-03-11T15:51:57;3.38;;;0.93;;
28180;SDS011;15464;50.988;10.318;2023-03-11T15:54:27;1.80;;;1.17;;
28180;SDS011;15464;50.988;10.318;2023-03-11T15:56:55;3.60;;;1.20;;
28180;SDS011;15464;50.988;10.318;2023-03-11T16:01:50;3.13;;;1.25;;
28180;SDS011;15464;50.988;10.318;2023-03-11T16:04:17;3.45;;;1.23;;
28180;SDS011;15464;50.988;10.318;2023-03-11T16:06:46;3.60;;;1.40;;
28180;SDS011;15464;50.988;10.318;2023-03-11T16:09:28;4.13;;;1.42;;
28180;SDS011;15464;50.988;10.318;2023-03-11T16:11:56;2.10;;;1.23;;
28180;SDS011;15464;50.988;10.318;2023-03-11T16:14:23;5.90;;;1.70;;
28180;SDS011;15464;50.988;10.318;2023-03-11T16:16:50;3.00;;;1.00;;
28180;SDS011;15464;50.988;10.318;2023-03-11T16:19:16;5.13;;;1.27;;
28180;SDS011;15464;50.988;10.318;2023-03-11T16:21:43;4.28;;;1.35;;
28180;SDS011;15464;50.988;10.318;2023-03-11T16:24:16;3.30;;;1.40;;
28180;SDS011;15464;50.988;10.318;2023-03-11T16:26:46;3.03;;;1.10;;
28180;SDS011;15464;50.988;10.318;2023-03-11T16:29:13;2.95;;;1.10;;
28180;SDS011;15464;50.988;10.318;2023-03-11T16:31:45;4.20;;;1.60;;
28180;SDS011;15464;50.988;10.318;2023-03-11T16:34:12;4.47;;;1.90;;
28180;SDS011;15464;50.988;10.318;2023-03-11T16:36:39;4.70;;;1.38;;
28180;SDS011;15464;50.988;10.318;2023-03-11T16:39:05;4.03;;;1.77;;
28180;SDS011;15464;50.988;10.318;2023-03-11T16:41:42;3.60;;;1.17;;
28180;SDS011;15464;50.988;10.318;2023-03-11T16:44:09;3.30;;;1.33;;
28180;SDS011;15464;50.988;10.318;2023-03-11T16:46:36;5.00;;;1.48;;
28180;SDS011;15464;50.988;10.318;2023-03-11T16:49:03;4.38;;;1.95;;
28180;SDS011;15464;50.988;10.318;2023-03-11T16:51:30;2.83;;;1.30;;
28180;SDS011;15464;50.988;10.318;2023-03-11T16:53:58;4.72;;;1.30;;
28180;SDS011;15464;50.988;10.318;2023-03-11T16:56:25;4.30;;;1.35;;
28180;SDS011;15464;50.988;10.318;2023-03-11T16:58:52;5.60;;;1.80;;
28180;SDS011;15464;50.988;10.318;2023-03-11T17:01:18;2.33;;;1.33;;
28180;SDS011;15464;50.988;10.318;2023-03-11T17:03:48;2.95;;;1.42;;
28180;SDS011;15464;50.988;10.318;2023-03-11T17:06:17;3.83;;;1.97;;
28180;SDS011;15464;50.988;10.318;2023-03-11T17:08:45;5.45;;;1.95;;